Time;durP1;ratioP1;P1;durP2;ratioP2;P2;SDS_P1;SDS_P2;PMS_P1;PMS_P2;Temp;Humidity;BMP_temperature;BMP_pressure;BME280_temperature;BME280_humidity;BME280_pressure;Samples;Min_cycle;Max_cycle;Signal;HPM_P1;HPM_P2
2022/09/13 00:01:16;;;;;;;7.53;4.43;;;;;;;14.27;100.00;63477.34;5026296;28;20246;-76
2022/09/13 00:03:43;;;;;;;4.88;4.57;;;;;;;14.17;100.00;63462.31;5024447;28;20198;-76
2022/09/13 00:06:12;;;;;;;11.00;5.15;;;;;;;14.19;100.00;63458.75;5024251;28;20215;-74
2022/09/13 00:08:40;;;;;;;5.82;4.47;;;;;;;14.16;100.00;63458.22;5023599;28;20234;-75
2022/09/13 00:11:07;;;;;;;5.75;5.13;;;;;;;14.22;100.00;63462.41;5024193;28;20572;-75
2022/09/13 00:13:34;;;;;;;8.18;4.50;;;;;;;14.25;100.00;63467.56;5025757;28;20199;-74
2022/09/13 00:16:04;;;;;;;6.25;4.82;;;;;;;14.22;100.00;63464.44;5024365;28;20218;-76
2022/09/13 00:18:30;;;;;;;5.07;4.68;;;;;;;14.21;100.00;63466.50;5023540;28;20459;-74
2022/09/13 00:21:08;;;;;;;5.05;4.35;;;;;;;14.28;100.00;63470.69;5024773;28;20225;-74
2022/09/13 00:23:35;;;;;;;5.40;4.70;;;;;;;14.25;100.00;63470.66;5024040;28;20224;-76
2022/09/13 00:26:08;;;;;;;7.00;5.05;;;;;;;14.30;100.00;63475.34;5025567;28;20218;-74
2022/09/13 00:28:35;;;;;;;5.60;5.20;;;;;;;14.42;100.00;63490.88;5024034;28;20333;-75
2022/09/13 00:31:06;;;;;;;8.95;5.35;;;;;;;14.39;100.00;63482.13;5023934;28;20222;-74
2022/09/13 00:33:34;;;;;;;5.20;4.80;;;;;;;14.42;100.00;63485.75;5024499;28;20233;-74
2022/09/13 00:36:04;;;;;;;7.07;4.85;;;;;;;14.43;100.00;63486.25;5023237;28;20226;-75
2022/09/13 00:38:31;;;;;;;5.47;5.00;;;;;;;14.43;100.00;63489.34;5025175;28;20187;-74
2022/09/13 00:40:58;;;;;;;4.75;4.30;;;;;;;14.49;100.00;63495.06;5024665;28;20246;-73
2022/09/13 00:43:42;;;;;;;4.97;4.10;;;;;;;14.47;100.00;63493.50;5023438;28;20197;-73
2022/09/13 00:46:13;;;;;;;6.50;5.18;;;;;;;14.51;100.00;63497.16;5029144;28;20222;-74
2022/09/13 00:48:41;;;;;;;5.90;5.03;;;;;;;14.58;100.00;63501.84;5028656;28;20229;-74
2022/09/13 00:51:10;;;;;;;5.57;5.07;;;;;;;14.52;100.00;63496.13;5027657;28;20218;-74
2022/09/13 00:53:41;;;;;;;5.28;4.78;;;;;;;14.61;100.00;63510.09;5027943;28;20209;-77
2022/09/13 00:56:11;;;;;;;5.00;4.03;;;;;;;14.60;100.00;63507.00;5028703;28;20284;-73
2022/09/13 00:58:43;;;;;;;4.88;4.45;;;;;;;14.66;100.00;63510.69;5026999;28;20203;-75
2022/09/13 01:01:15;;;;;;;5.60;4.72;;;;;;;14.67;100.00;63513.75;5027697;28;20225;-75
2022/09/13 01:03:45;;;;;;;5.60;5.10;;;;;;;14.72;100.00;63516.91;5028235;28;20187;-76
2022/09/13 01:06:14;;;;;;;7.28;4.65;;;;;;;14.67;100.00;63516.31;5027023;28;20268;-74
2022/09/13 01:08:43;;;;;;;5.68;5.25;;;;;;;14.70;100.00;63517.38;5027331;28;20234;-74
2022/09/13 01:11:14;;;;;;;4.60;4.13;;;;;;;14.76;100.00;63520.53;5031628;28;20225;-75
2022/09/13 01:13:42;;;;;;;4.90;4.50;;;;;;;14.78;100.00;63525.72;5026496;28;20406;-73
2022/09/13 01:16:09;;;;;;;4.07;3.85;;;;;;;14.72;100.00;63518.97;5026658;28;20285;-74
2022/09/13 01:18:37;;;;;;;5.50;3.95;;;;;;;14.75;100.00;63522.06;5027243;28;20394;-73
2022/09/13 01:21:31;;;;;;;4.05;3.75;;;;;;;14.82;100.00;63534.97;5027149;28;20214;-75
2022/09/13 01:24:25;;;;;;;6.10;4.00;;;;;;;14.82;100.00;63524.72;5027537;28;20518;-73
2022/09/13 01:27:24;;;;;;;4.38;3.90;;;;;;;14.80;100.00;63527.78;5028410;28;20265;-75
2022/09/13 01:30:19;;;;;;;4.97;4.57;;;;;;;14.76;100.00;63526.19;5011026;28;20214;-76
2022/09/13 01:33:14;;;;;;;4.50;4.10;;;;;;;14.80;100.00;63527.25;5026949;28;20195;-73
2022/09/13 01:35:57;;;;;;;11.30;4.25;;;;;;;14.72;100.00;63516.41;5026647;28;20231;-75
2022/09/13 01:38:45;;;;;;;5.80;4.07;;;;;;;14.78;100.00;63530.84;5026817;28;20205;-74
2022/09/13 01:41:27;;;;;;;4.68;4.28;;;;;;;14.76;100.00;63520.53;5028788;28;20297;-75
2022/09/13 01:43:59;;;;;;;4.07;3.78;;;;;;;14.83;100.00;63532.94;5026963;28;20241;-75
2022/09/13 01:46:33;;;;;;;4.97;4.43;;;;;;;14.79;100.00;63529.31;5027386;28;20222;-72
2022/09/13 01:49:10;;;;;;;5.53;4.13;;;;;;;14.74;100.00;63518.97;5027849;28;20218;-74
2022/09/13 01:51:45;;;;;;;8.32;4.25;;;;;;;14.74;100.00;63521.03;5027218;28;20219;-73
2022/09/13 01:54:18;;;;;;;4.65;4.25;;;;;;;14.74;100.00;63523.59;5027643;28;20198;-73
2022/09/13 01:56:54;;;;;;;5.40;4.30;;;;;;;14.67;100.00;63511.19;5026071;28;20218;-74
2022/09/13 01:59:29;;;;;;;6.28;4.45;;;;;;;14.58;100.00;63504.41;5010728;28;20191;-77
2022/09/13 02:02:02;;;;;;;4.18;3.88;;;;;;;14.61;100.00;63505.50;5025889;28;20214;-76
2022/09/13 02:04:35;;;;;;;4.35;4.05;;;;;;;14.55;100.00;63498.72;5026621;28;20199;-76
2022/09/13 02:07:06;;;;;;;6.30;4.22;;;;;;;14.61;100.00;63508.06;5027155;28;20384;-75
2022/09/13 02:09:39;;;;;;;5.35;4.38;;;;;;;14.47;100.00;63496.06;5027825;28;20545;-76
2022/09/13 02:12:10;;;;;;;4.20;3.97;;;;;;;14.36;100.00;63481.56;5026275;28;20229;-76
2022/09/13 02:14:40;;;;;;;5.07;4.78;;;;;;;14.40;100.00;63486.25;5025642;28;20422;-76
2022/09/13 02:17:14;;;;;;;4.25;3.95;;;;;;;14.45;100.00;63494.00;5027419;28;20495;-74
2022/09/13 02:19:46;;;;;;;5.90;4.10;;;;;;;14.48;100.00;63496.59;5026162;28;20202;-75
2022/09/13 02:22:16;;;;;;;8.40;3.95;;;;;;;14.39;100.00;63487.75;5026480;28;20290;-75
2022/09/13 02:24:48;;;;;;;4.57;4.15;;;;;;;14.41;100.00;63492.41;5026685;28;20194;-76
2022/09/13 02:27:20;;;;;;;4.65;4.35;;;;;;;14.39;100.00;63484.69;5025873;28;20514;-74
2022/09/13 02:29:52;;;;;;;4.25;3.83;;;;;;;14.31;100.00;63478.94;5024682;28;20187;-76
2022/09/13 02:32:24;;;;;;;4.63;4.00;;;;;;;14.27;100.00;63470.16;5006886;28;20195;-73
2022/09/13 02:34:55;;;;;;;5.68;4.97;;;;;;;14.22;100.00;63470.06;5007703;28;20396;-74
2022/09/13 02:37:25;;;;;;;4.53;4.10;;;;;;;14.18;100.00;63470.53;5020392;28;20261;-73
2022/09/13 02:39:57;;;;;;;4.13;3.83;;;;;;;14.18;100.00;63463.38;5027169;28;20262;-74
2022/09/13 02:42:29;;;;;;;3.90;3.60;;;;;;;14.09;100.00;63453.50;5025229;28;20202;-73
2022/09/13 02:44:58;;;;;;;4.30;4.00;;;;;;;14.05;100.00;63446.81;5026276;28;20602;-74
2022/09/13 02:47:38;;;;;;;4.13;3.72;;;;;;;14.00;100.00;63444.16;5025550;28;20226;-75
2022/09/13 02:50:23;;;;;;;4.90;4.50;;;;;;;14.06;100.00;63445.28;5025650;28;20285;-75
2022/09/13 02:52:58;;;;;;;4.25;3.80;;;;;;;14.04;100.00;63446.28;5024873;28;20531;-75
2022/09/13 02:55:32;;;;;;;4.97;4.05;;;;;;;13.93;100.00;63439.97;5027055;28;20225;-72
2022/09/13 02:58:06;;;;;;;4.63;4.25;;;;;;;13.97;100.00;63443.59;5025221;28;20391;-75
2022/09/13 03:00:33;;;;;;;4.63;3.78;;;;;;;13.93;100.00;63434.84;5025891;28;20404;-73
2022/09/13 03:03:06;;;;;;;4.75;4.35;;;;;;;13.98;100.00;63442.59;5025663;28;20378;-74
2022/09/13 03:05:33;;;;;;;4.43;4.13;;;;;;;13.93;100.00;63434.34;5024822;28;20286;-74
2022/09/13 03:08:01;;;;;;;6.20;4.53;;;;;;;14.01;100.00;63448.28;5025202;28;20234;-75
2022/09/13 03:10:40;;;;;;;6.70;3.88;;;;;;;13.94;100.00;63438.97;5027934;28;20273;-74
2022/09/13 03:13:32;;;;;;;3.95;3.65;;;;;;;13.93;100.00;63435.38;5025259;28;20198;-76
2022/09/13 03:16:06;;;;;;;4.57;4.28;;;;;;;13.89;100.00;63430.72;5025154;28;20215;-76
2022/09/13 03:18:52;;;;;;;5.85;4.18;;;;;;;13.89;100.00;63430.72;5025830;28;20194;-76
2022/09/13 03:21:40;;;;;;;4.65;4.25;;;;;;;13.86;100.00;63430.66;5025261;28;20226;-73
2022/09/13 03:24:16;;;;;;;4.22;3.92;;;;;;;13.93;100.00;63434.34;5025698;28;20187;-74
2022/09/13 03:26:54;;;;;;;4.85;4.45;;;;;;;13.95;100.00;63436.94;5025758;28;20226;-75
2022/09/13 03:29:30;;;;;;;6.55;3.78;;;;;;;14.03;100.00;63445.22;5025110;28;20222;-74
2022/09/13 03:32:06;;;;;;;4.40;4.07;;;;;;;14.07;100.00;63453.97;5013057;28;20256;-74
2022/09/13 03:34:44;;;;;;;4.25;3.90;;;;;;;13.99;100.00;63443.66;5024708;28;20202;-76
2022/09/13 03:37:22;;;;;;;4.22;3.33;;;;;;;14.06;100.00;63455.50;5024140;28;20214;-73
2022/09/13 03:39:56;;;;;;;3.63;3.33;;;;;;;14.02;100.00;63449.31;5027484;28;20222;-75
2022/09/13 03:42:28;;;;;;;3.53;3.28;;;;;;;14.07;100.00;63454.50;5024520;28;20273;-74
2022/09/13 03:44:58;;;;;;;3.15;2.95;;;;;;;14.09;100.00;63456.06;5024114;28;20199;-73
2022/09/13 03:47:28;;;;;;;5.13;2.95;;;;;;;14.03;100.00;63450.34;5025553;28;20195;-75
2022/09/13 03:49:57;;;;;;;3.20;3.00;;;;;;;14.09;100.00;63453.50;5024896;28;20249;-75
2022/09/13 03:52:25;;;;;;;3.50;3.30;;;;;;;13.96;100.00;63440.00;5025453;28;20245;-76
2022/09/13 03:54:53;;;;;;;3.55;3.35;;;;;;;13.97;100.00;63443.59;5025578;28;20420;-76
2022/09/13 03:57:21;;;;;;;3.72;3.42;;;;;;;13.93;100.00;63442.53;5024827;28;20206;-76
2022/09/13 03:59:50;;;;;;;3.90;3.63;;;;;;;13.99;100.00;63445.69;5024205;28;20222;-75
2022/09/13 04:02:18;;;;;;;3.50;3.30;;;;;;;13.97;100.00;63441.03;5025667;28;20306;-74
2022/09/13 04:04:46;;;;;;;3.10;2.90;;;;;;;13.87;99.81;63434.25;5024168;28;20271;-74
2022/09/13 04:07:20;;;;;;;3.25;3.05;;;;;;;13.94;99.98;63438.47;5025353;28;20573;-76
2022/09/13 04:09:47;;;;;;;4.18;3.65;;;;;;;13.92;99.90;63436.38;5024780;28;20233;-74
2022/09/13 04:12:15;;;;;;;5.00;3.00;;;;;;;13.87;99.75;63431.19;5025096;28;20195;-74
2022/09/13 04:14:43;;;;;;;3.67;3.47;;;;;;;13.89;99.41;63435.84;5025277;28;20199;-75
2022/09/13 04:17:10;;;;;;;3.00;2.80;;;;;;;13.86;99.55;63430.66;5025685;28;20191;-73
2022/09/13 04:19:38;;;;;;;4.45;3.28;;;;;;;13.67;100.00;63410.94;5024349;28;20406;-72
2022/09/13 04:22:05;;;;;;;4.07;3.25;;;;;;;13.68;100.00;63414.03;5024694;28;20201;-75
2022/09/13 04:24:33;;;;;;;4.07;3.70;;;;;;;13.72;100.00;63413.03;5026264;28;20515;-73
2022/09/13 04:27:01;;;;;;;2.88;2.78;;;;;;;13.70;100.00;63413.53;5025709;28;20223;-76
2022/09/13 04:29:30;;;;;;;3.40;3.20;;;;;;;13.73;100.00;63414.09;5026555;28;20281;-75
2022/09/13 04:31:57;;;;;;;3.45;3.25;;;;;;;13.76;99.71;63422.84;5005277;28;20538;-75
2022/09/13 04:34:24;;;;;;;3.92;3.63;;;;;;;13.74;99.86;63420.25;5006771;28;20200;-75
2022/09/13 04:36:53;;;;;;;3.20;3.00;;;;;;;13.76;100.00;63417.22;5004998;28;20461;-76
2022/09/13 04:39:20;;;;;;;6.40;3.22;;;;;;;13.83;99.35;63429.59;5006325;28;20199;-74
2022/09/13 04:41:53;;;;;;;3.85;3.30;;;;;;;13.84;98.58;63428.59;5005821;28;20231;-76
2022/09/13 04:44:20;;;;;;;3.65;3.45;;;;;;;13.89;98.15;63433.28;5004555;28;20187;-73
2022/09/13 04:46:48;;;;;;;3.38;3.17;;;;;;;13.90;98.31;63432.25;5005987;28;20223;-74
2022/09/13 04:49:16;;;;;;;3.35;3.15;;;;;;;13.85;98.25;63429.63;5004357;28;20235;-77
2022/09/13 04:51:43;;;;;;;3.35;3.15;;;;;;;13.97;96.93;63439.00;5005902;28;20229;-76
2022/09/13 04:54:11;;;;;;;3.13;2.95;;;;;;;14.08;95.94;63458.09;5005303;28;20205;-75
2022/09/13 04:56:38;;;;;;;5.35;3.05;;;;;;;14.20;96.20;63467.50;5003955;28;20258;-73
2022/09/13 04:59:06;;;;;;;3.50;3.15;;;;;;;14.22;94.93;63464.97;5003823;28;20414;-74
2022/09/13 05:01:34;;;;;;;3.28;3.03;;;;;;;14.34;94.68;63482.56;5005340;28;20513;-76
2022/09/13 05:04:01;;;;;;;2.70;2.60;;;;;;;14.46;92.40;63491.94;5003670;28;20254;-75
2022/09/13 05:06:29;;;;;;;2.72;2.60;;;;;;;14.42;93.31;63490.34;5005505;28;20246;-75
2022/09/13 05:08:57;;;;;;;7.80;2.60;;;;;;;14.54;92.31;63500.25;5003758;28;20305;-75
2022/09/13 05:11:25;;;;;;;2.85;2.65;;;;;;;14.59;91.31;63503.41;5004057;28;20261;-75
2022/09/13 05:13:54;;;;;;;2.95;2.65;;;;;;;14.75;91.22;63522.06;5003869;28;20242;-77
2022/09/13 05:16:23;;;;;;;2.67;2.47;;;;;;;14.84;90.71;63526.31;5004083;28;20219;-73
2022/09/13 05:18:50;;;;;;;2.70;2.50;;;;;;;15.02;87.90;63552.69;5004380;28;20250;-76
2022/09/13 05:21:18;;;;;;;2.75;2.55;;;;;;;15.14;88.50;63562.06;5003757;28;20223;-74
2022/09/13 05:23:45;;;;;;;2.83;2.63;;;;;;;15.10;88.22;63557.91;5003137;28;20195;-73
2022/09/13 05:26:12;;;;;;;2.85;2.22;;;;;;;15.14;85.67;63562.59;5003628;28;20219;-74
2022/09/13 05:28:39;;;;;;;2.45;2.25;;;;;;;15.40;84.89;63589.63;5005526;28;20241;-74
2022/09/13 05:31:10;;;;;;;3.17;2.83;;;;;;;15.52;82.70;63602.09;5017465;28;20222;-75
2022/09/13 05:33:38;;;;;;;4.57;3.03;;;;;;;15.64;80.49;63614.06;5028074;28;20199;-73
2022/09/13 05:36:07;;;;;;;3.13;2.38;;;;;;;15.69;79.82;63622.34;5026963;28;20451;-73
2022/09/13 05:38:34;;;;;;;2.65;2.38;;;;;;;15.49;80.31;63598.47;5028664;28;20205;-74
2022/09/13 05:41:02;;;;;;;2.50;2.35;;;;;;;15.74;79.72;63627.53;5027344;28;20225;-75
2022/09/13 05:43:31;;;;;;;4.88;3.13;;;;;;;15.86;77.30;63637.44;5029271;28;20313;-76
2022/09/13 05:46:01;;;;;;;2.85;2.10;;;;;;;15.89;76.19;63635.44;5026709;28;20383;-73
2022/09/13 05:48:29;;;;;;;2.70;2.50;;;;;;;15.90;77.47;63643.66;5028172;28;20393;-75
2022/09/13 05:50:57;;;;;;;2.50;2.40;;;;;;;16.00;76.37;63654.56;5026786;28;20206;-74
2022/09/13 05:53:24;;;;;;;2.30;2.13;;;;;;;15.68;77.55;63621.31;5026799;28;20190;-75
2022/09/13 05:55:51;;;;;;;3.25;1.98;;;;;;;15.65;78.22;63613.03;5028324;28;20230;-73
2022/09/13 05:58:18;;;;;;;2.72;2.50;;;;;;;15.68;78.25;63618.75;5026309;28;20213;-73
2022/09/13 06:00:44;;;;;;;2.30;2.20;;;;;;;15.75;77.01;63626.03;5027765;28;20244;-75
2022/09/13 06:03:11;;;;;;;3.25;2.47;;;;;;;15.65;78.27;63615.09;5026825;28;20222;-74
2022/09/13 06:05:38;;;;;;;4.28;2.72;;;;;;;15.50;78.71;63602.06;5026618;28;20214;-73
2022/09/13 06:08:07;;;;;;;2.72;2.53;;;;;;;15.63;77.91;63610.47;5026014;28;20241;-75
2022/09/13 06:10:33;;;;;;;2.63;2.50;;;;;;;15.65;77.69;63612.53;5027801;28;20602;-76
2022/09/13 06:13:00;;;;;;;2.75;2.42;;;;;;;15.75;76.58;63625.50;5025651;28;20202;-78
2022/09/13 06:15:27;;;;;;;2.65;2.53;;;;;;;15.64;75.46;63614.06;5027440;28;20236;-77
2022/09/13 06:17:54;;;;;;;4.35;3.08;;;;;;;15.60;77.12;63612.47;5025505;28;20232;-76
2022/09/13 06:20:21;;;;;;;3.70;2.70;;;;;;;15.69;75.59;63616.69;5026860;28;20222;-75
2022/09/13 06:22:48;;;;;;;2.40;2.30;;;;;;;15.76;75.05;63627.06;5026468;28;20203;-74
2022/09/13 06:25:17;;;;;;;2.63;2.53;;;;;;;15.70;75.49;63615.16;5028148;28;20435;-76
2022/09/13 06:27:43;;;;;;;2.30;2.20;;;;;;;15.85;75.41;63633.31;5026598;28;20198;-77
2022/09/13 06:30:11;;;;;;;3.20;2.78;;;;;;;15.87;74.85;63640.53;5020830;28;20233;-73
2022/09/13 06:32:38;;;;;;;3.33;2.63;;;;;;;15.90;75.52;63641.09;5008393;28;20199;-75
2022/09/13 06:35:06;;;;;;;2.58;2.47;;;;;;;15.73;77.03;63623.94;5005841;28;20538;-75
2022/09/13 06:37:33;;;;;;;3.13;2.30;;;;;;;15.87;75.24;63640.53;5006627;28;20364;-75
2022/09/13 06:40:00;;;;;;;2.85;2.65;;;;;;;15.98;74.80;63649.41;5007304;28;20574;-76
2022/09/13 06:42:29;;;;;;;2.78;2.60;;;;;;;15.97;75.08;63648.38;5006557;28;20206;-78
2022/09/13 06:44:56;;;;;;;2.95;2.75;;;;;;;16.01;75.86;63650.47;5007603;28;20242;-77
2022/09/13 06:47:23;;;;;;;2.65;2.50;;;;;;;16.06;75.99;63660.31;5008507;28;20195;-74
2022/09/13 06:49:49;;;;;;;3.03;2.50;;;;;;;16.21;75.80;63673.31;5006779;28;20231;-72
2022/09/13 06:52:16;;;;;;;2.78;2.58;;;;;;;16.02;76.65;63656.13;5007472;28;20226;-76
2022/09/13 06:54:43;;;;;;;4.47;3.10;;;;;;;16.06;76.47;63660.81;5007942;28;20195;-73
2022/09/13 06:57:10;;;;;;;3.60;2.67;;;;;;;16.04;78.38;63661.31;5009069;28;20302;-73
2022/09/13 06:59:38;;;;;;;2.83;2.63;;;;;;;15.97;79.21;63654.03;5007580;28;20195;-73
2022/09/13 07:02:05;;;;;;;4.07;2.50;;;;;;;15.97;78.48;63645.81;5006583;28;20207;-73
2022/09/13 07:04:32;;;;;;;2.70;2.50;;;;;;;16.23;75.29;63672.84;5008897;28;20194;-75
2022/09/13 07:06:59;;;;;;;2.70;2.53;;;;;;;16.38;75.36;63688.44;5007686;28;20531;-74
2022/09/13 07:09:26;;;;;;;2.60;2.45;;;;;;;15.95;77.30;63644.25;5008077;28;20230;-75
2022/09/13 07:11:55;;;;;;;5.97;2.63;;;;;;;15.90;78.69;63638.53;5006619;28;20408;-74
2022/09/13 07:14:24;;;;;;;5.05;2.80;;;;;;;16.07;79.49;63664.44;5006711;28;20205;-72
2022/09/13 07:16:52;;;;;;;2.78;2.67;;;;;;;16.05;78.70;63662.34;5006337;28;20223;-73
2022/09/13 07:19:22;;;;;;;2.58;2.47;;;;;;;15.98;76.98;63647.34;5005410;28;20394;-72
2022/09/13 07:21:50;;;;;;;3.00;2.30;;;;;;;16.24;75.95;63678.50;5024166;28;20226;-74
2022/09/13 07:24:17;;;;;;;2.70;2.60;;;;;;;16.15;75.90;63667.59;5025454;28;20194;-74
2022/09/13 07:26:43;;;;;;;4.80;2.20;;;;;;;15.99;76.04;63653.53;5025335;28;20446;-72
2022/09/13 07:29:13;;;;;;;2.90;2.70;;;;;;;15.95;75.31;63646.81;5025276;28;20226;-72
2022/09/13 07:31:41;;;;;;;2.70;2.50;;;;;;;16.02;73.21;63656.66;5024382;28;20214;-72
2022/09/13 07:34:13;;;;;;;3.15;2.95;;;;;;;16.05;73.71;63654.63;5026124;28;20525;-74
2022/09/13 07:36:41;;;;;;;3.17;2.78;;;;;;;16.45;73.51;63695.72;5025864;28;20226;-75
2022/09/13 07:39:09;;;;;;;2.83;2.63;;;;;;;16.84;73.49;63744.03;5025087;28;20197;-72
2022/09/13 07:41:35;;;;;;;2.35;2.25;;;;;;;17.18;71.38;63774.28;5024366;28;20255;-74
2022/09/13 07:44:03;;;;;;;2.13;2.03;;;;;;;17.17;68.38;63773.25;5026914;28;20223;-75
2022/09/13 07:46:32;;;;;;;2.60;2.40;;;;;;;16.99;68.79;63753.97;5025380;28;20356;-75
2022/09/13 07:49:00;;;;;;;5.22;2.17;;;;;;;16.79;67.00;63735.75;5024698;28;20277;-76
2022/09/13 07:51:30;;;;;;;2.33;2.08;;;;;;;16.82;65.18;63736.81;5024131;28;20268;-74
2022/09/13 07:53:59;;;;;;;2.80;2.60;;;;;;;16.94;64.11;63751.88;5023356;28;20190;-75
2022/09/13 07:56:27;;;;;;;2.30;2.15;;;;;;;17.33;64.32;63791.94;5025363;28;20225;-73
2022/09/13 07:58:55;;;;;;;2.13;2.03;;;;;;;17.32;61.97;63788.84;5025372;28;20198;-75
2022/09/13 08:01:24;;;;;;;2.20;2.00;;;;;;;17.25;62.29;63781.56;5025733;28;20292;-74
2022/09/13 08:03:52;;;;;;;5.35;2.63;;;;;;;17.37;59.35;63790.97;5024427;28;20391;-74
2022/09/13 08:06:18;;;;;;;2.50;2.25;;;;;;;17.41;61.64;63795.13;5025705;28;20226;-73
2022/09/13 08:08:47;;;;;;;1.80;1.70;;;;;;;17.46;59.21;63802.94;5023894;28;20190;-76
2022/09/13 08:11:18;;;;;;;2.97;2.08;;;;;;;17.28;61.25;63782.13;5025085;28;20238;-75
2022/09/13 08:13:45;;;;;;;2.13;2.03;;;;;;;17.30;60.29;63788.81;5026455;28;20231;-75
2022/09/13 08:16:13;;;;;;;2.33;2.22;;;;;;;17.41;59.60;63800.28;5025609;28;20260;-77
2022/09/13 08:18:44;;;;;;;2.13;2.03;;;;;;;17.50;57.95;63807.09;5024214;28;20267;-74
2022/09/13 08:21:11;;;;;;;2.00;1.90;;;;;;;17.66;57.85;63823.75;5024733;28;20226;-75
2022/09/13 08:23:38;;;;;;;2.65;2.10;;;;;;;17.68;57.67;63822.75;5023520;28;20198;-73
2022/09/13 08:26:07;;;;;;;1.60;1.50;;;;;;;17.51;56.49;63810.72;5025198;28;20232;-74
2022/09/13 08:28:35;;;;;;;1.42;1.42;;;;;;;17.41;58.66;63797.19;5024987;28;20194;-76
2022/09/13 08:31:06;;;;;;;2.10;2.00;;;;;;;17.51;58.25;63808.16;5024453;28;20533;-76
2022/09/13 08:33:33;;;;;;;2.08;1.83;;;;;;;17.85;56.70;63843.53;5023633;28;20221;-73
2022/09/13 08:36:00;;;;;;;2.70;2.50;;;;;;;18.16;56.06;63875.31;5025565;28;20225;-77
2022/09/13 08:38:28;;;;;;;2.75;2.25;;;;;;;18.14;55.33;63873.22;5023516;28;20198;-74
2022/09/13 08:40:57;;;;;;;1.90;1.80;;;;;;;18.23;54.26;63882.59;5024797;28;20593;-75
2022/09/13 08:43:36;;;;;;;1.88;1.77;;;;;;;18.54;53.39;63912.34;5025159;28;20193;-73
2022/09/13 08:46:06;;;;;;;2.15;2.05;;;;;;;18.78;51.81;63939.94;5024533;28;20222;-73
2022/09/13 08:48:35;;;;;;;2.53;1.77;;;;;;;18.61;51.93;63921.69;5023406;28;20194;-72
2022/09/13 08:51:06;;;;;;;1.73;1.63;;;;;;;17.90;51.56;63853.38;5023511;28;20230;-73
2022/09/13 08:53:43;;;;;;;1.73;1.63;;;;;;;18.16;51.89;63878.41;5024005;28;20221;-77
2022/09/13 08:56:13;;;;;;;3.63;1.80;;;;;;;18.47;51.37;63909.69;5023789;28;20272;-76
2022/09/13 08:59:08;;;;;;;1.55;1.52;;;;;;;18.85;49.27;63947.25;5024352;28;20244;-77
2022/09/13 09:01:50;;;;;;;1.75;1.73;;;;;;;19.15;48.38;63980.56;5024635;28;20511;-75
2022/09/13 09:04:32;;;;;;;1.75;1.50;;;;;;;19.04;48.65;63971.69;5023294;28;20200;-76
2022/09/13 09:07:05;;;;;;;1.40;1.40;;;;;;;18.91;48.65;63950.91;5028012;28;20221;-73
2022/09/13 09:09:37;;;;;;;1.92;1.83;;;;;;;18.81;48.20;63942.56;5027636;28;20190;-75
2022/09/13 09:12:15;;;;;;;2.03;1.60;;;;;;;18.30;50.35;63889.91;5029924;28;20217;-73
2022/09/13 09:14:48;;;;;;;1.90;1.80;;;;;;;18.25;49.86;63884.69;5027129;28;20186;-74
2022/09/13 09:17:20;;;;;;;1.90;1.77;;;;;;;18.55;50.82;63915.44;5027435;28;20463;-74
2022/09/13 09:19:52;;;;;;;1.75;1.63;;;;;;;18.39;50.20;63907.53;5029027;28;20198;-74
2022/09/13 09:22:21;;;;;;;2.00;1.20;;;;;;;18.71;47.69;63932.13;5026757;28;20202;-77
2022/09/13 09:24:54;;;;;;;1.48;1.48;;;;;;;18.81;48.82;63950.81;5028208;28;20495;-75
2022/09/13 09:27:21;;;;;;;1.58;1.48;;;;;;;18.66;47.18;63926.91;5026444;28;20194;-72
2022/09/13 09:29:52;;;;;;;1.52;1.42;;;;;;;18.37;48.94;63900.31;5024194;28;20234;-73
2022/09/13 09:32:34;;;;;;;1.67;1.67;;;;;;;18.65;47.90;63928.97;5007489;28;20187;-75
2022/09/13 09:35:11;;;;;;;4.57;1.38;;;;;;;18.78;45.98;63937.34;5007713;28;20265;-74
2022/09/13 09:37:40;;;;;;;1.50;1.48;;;;;;;18.60;46.99;63923.78;5007431;28;20349;-74
2022/09/13 09:40:11;;;;;;;1.52;1.42;;;;;;;18.87;46.94;63951.38;5008059;28;20286;-74
2022/09/13 09:42:42;;;;;;;1.92;1.83;;;;;;;18.82;46.82;63943.59;5007737;28;20230;-77
2022/09/13 09:45:26;;;;;;;4.65;3.22;;;;;;;18.95;46.47;63954.53;5007743;28;20514;-72
2022/09/13 09:47:54;;;;;;;2.42;2.22;;;;;;;18.47;47.83;63910.22;5006712;28;20214;-74
2022/09/13 09:50:24;;;;;;;3.85;1.42;;;;;;;18.19;48.09;63883.59;5007163;28;20326;-73
2022/09/13 09:52:58;;;;;;;1.73;1.63;;;;;;;18.05;47.03;63863.88;5007537;28;20246;-75
2022/09/13 09:55:28;;;;;;;1.80;1.70;;;;;;;18.04;47.98;63865.38;5008437;28;20248;-78
2022/09/13 09:57:57;;;;;;;2.17;1.45;;;;;;;18.36;47.16;63893.59;5006538;28;20202;-77
2022/09/13 10:00:29;;;;;;;1.48;1.48;;;;;;;18.74;47.05;63935.25;5007832;28;20285;-74
2022/09/13 10:02:58;;;;;;;1.40;1.40;;;;;;;19.01;45.57;63968.56;5006557;28;20250;-76
2022/09/13 10:05:26;;;;;;;1.70;1.70;;;;;;;19.35;45.19;64001.97;5007729;28;20261;-74
2022/09/13 10:07:57;;;;;;;1.80;1.70;;;;;;;19.92;43.43;64060.91;5008297;28;20198;-74
2022/09/13 10:10:29;;;;;;;2.90;1.40;;;;;;;19.94;43.99;64063.00;5006330;28;20554;-74
2022/09/13 10:12:58;;;;;;;1.55;1.55;;;;;;;20.04;43.92;64070.84;5007411;28;20191;-75
2022/09/13 10:15:33;;;;;;;1.48;1.40;;;;;;;19.61;44.44;64023.41;5007217;28;20226;-75
2022/09/13 10:18:12;;;;;;;2.17;1.75;;;;;;;19.83;43.24;64053.59;5006750;28;20195;-75
2022/09/13 10:20:39;;;;;;;1.50;1.45;;;;;;;20.10;44.37;64077.09;5007789;28;20538;-77
2022/09/13 10:23:19;;;;;;;1.70;1.60;;;;;;;19.66;45.01;64028.09;5005882;28;20190;-73
2022/09/13 10:25:57;;;;;;;1.23;1.23;;;;;;;19.96;42.63;64067.66;5007134;28;20219;-75
2022/09/13 10:28:25;;;;;;;3.28;3.08;;;;;;;19.76;44.14;64041.13;5006554;28;20194;-75
2022/09/13 10:30:58;;;;;;;1.48;1.48;;;;;;;19.65;43.63;64030.16;5017752;28;20420;-73
2022/09/13 10:33:29;;;;;;;1.95;1.85;;;;;;;19.43;43.91;64004.63;5027791;28;20253;-74
2022/09/13 10:35:59;;;;;;;1.80;1.70;;;;;;;19.00;45.09;63962.88;5025570;28;20568;-76
2022/09/13 10:38:30;;;;;;;3.53;1.92;;;;;;;19.19;44.63;63982.16;5026161;28;20221;-75
2022/09/13 10:40:59;;;;;;;2.42;1.80;;;;;;;19.04;44.11;63963.94;5025879;28;20233;-75
2022/09/13 10:43:29;;;;;;;1.92;1.85;;;;;;;19.10;45.25;63972.78;5025648;28;20202;-73
2022/09/13 10:46:00;;;;;;;1.63;1.48;;;;;;;18.92;44.09;63959.69;5026445;28;20252;-74
2022/09/13 10:48:29;;;;;;;2.00;1.90;;;;;;;19.03;43.66;63970.66;5025160;28;20198;-76
2022/09/13 10:51:06;;;;;;;1.67;1.67;;;;;;;19.39;42.96;64005.63;5026358;28;20408;-74
2022/09/13 10:53:37;;;;;;;1.58;1.58;;;;;;;19.51;42.58;64015.56;5025498;28;20186;-74
2022/09/13 10:56:04;;;;;;;1.70;1.70;;;;;;;19.73;42.48;64038.50;5027066;28;20530;-76
2022/09/13 10:58:31;;;;;;;1.52;1.45;;;;;;;19.65;42.58;64032.75;5025037;28;20221;-73
2022/09/13 11:01:36;;;;;;;1.80;1.70;;;;;;;19.54;43.20;64021.25;5028096;28;20218;-75
2022/09/13 11:04:33;;;;;;;1.70;1.60;;;;;;;19.82;42.63;64044.78;5012869;28;20209;-76
2022/09/13 11:07:15;;;;;;;1.60;1.60;;;;;;;20.01;42.95;64064.59;5026463;28;20222;-74
2022/09/13 11:09:47;;;;;;;2.72;1.90;;;;;;;19.84;43.20;64055.16;5025746;28;20186;-76
2022/09/13 11:12:19;;;;;;;1.55;1.55;;;;;;;19.77;44.30;64044.72;5025824;28;20233;-73
2022/09/13 11:14:58;;;;;;;1.88;1.88;;;;;;;19.82;43.68;64049.94;5024841;28;20444;-73
2022/09/13 11:17:43;;;;;;;2.70;1.60;;;;;;;19.61;43.29;64028.56;5027495;28;20198;-74
2022/09/13 11:20:20;;;;;;;3.10;1.70;;;;;;;19.61;43.80;64025.44;5025867;28;20217;-73
2022/09/13 11:23:14;;;;;;;1.85;1.85;;;;;;;19.89;42.94;64055.19;5024856;28;20189;-73
2022/09/13 11:26:07;;;;;;;2.17;2.08;;;;;;;20.05;42.73;64077.03;5026465;28;20293;-75
2022/09/13 11:28:47;;;;;;;1.70;1.70;;;;;;;20.19;42.17;64086.00;5026487;28;20229;-74
2022/09/13 11:31:31;;;;;;;1.50;1.50;;;;;;;19.69;43.49;64031.72;5012555;28;20404;-73
2022/09/13 11:34:14;;;;;;;1.60;1.50;;;;;;;19.74;42.79;64033.84;5006651;28;20443;-75
2022/09/13 11:37:00;;;;;;;2.22;1.67;;;;;;;19.91;42.13;64056.75;5004953;28;20219;-74
2022/09/13 11:39:32;;;;;;;2.72;1.75;;;;;;;20.20;40.23;64087.03;5007361;28;20198;-75
2022/09/13 11:42:13;;;;;;;2.03;1.75;;;;;;;19.77;41.90;64045.25;5005653;28;20230;-75
2022/09/13 11:44:54;;;;;;;2.10;2.00;;;;;;;20.05;41.28;64071.88;5006358;28;20198;-74
2022/09/13 11:47:32;;;;;;;2.30;2.20;;;;;;;20.39;40.00;64104.28;5006078;28;20187;-75
2022/09/13 11:50:17;;;;;;;2.60;1.40;;;;;;;20.39;40.51;64112.03;5005251;28;20313;-73